sensor_id;sensor_type;location;lat;lon;timestamp;P1;durP1;ratioP1;P2;durP2;ratioP2
1366;SDS011;16877;48.810;9.282;2023-02-15T00:00:03;21.03;;;18.63;;
1366;SDS011;16877;48.810;9.282;2023-02-15T00:02:31;22.07;;;19.93;;
1366;SDS011;16877;48.810;9.282;2023-02-15T00:05:03;22.37;;;19.97;;
1366;SDS011;16877;48.810;9.282;2023-02-15T00:07:30;22.60;;;20.23;;
1366;SDS011;16877;48.810;9.282;2023-02-15T00:09:58;22.37;;;20.20;;
1366;SDS011;16877;48.810;9.282;2023-02-15T00:12:25;21.97;;;19.70;;
1366;SDS011;16877;48.810;9.282;2023-02-15T00:14:58;22.60;;;20.37;;
1366;SDS011;16877;48.810;9.282;2023-02-15T00:17:26;20.73;;;18.73;;
1366;SDS011;16877;48.810;9.282;2023-02-15T00:19:53;21.37;;;19.07;;
1366;SDS011;16877;48.810;9.282;2023-02-15T00:22:21;21.10;;;19.10;;
1366;SDS011;16877;48.810;9.282;2023-02-15T00:24:48;22.30;;;20.00;;
1366;SDS011;16877;48.810;9.282;2023-02-15T00:27:16;23.87;;;21.47;;
1366;SDS011;16877;48.810;9.282;2023-02-15T00:29:43;21.80;;;19.60;;
1366;SDS011;16877;48.810;9.282;2023-02-15T00:32:27;22.83;;;20.23;;
1366;SDS011;16877;48.810;9.282;2023-02-15T00:34:54;20.67;;;18.57;;
1366;SDS011;16877;48.810;9.282;2023-02-15T00:37:22;19.10;;;17.20;;
1366;SDS011;16877;48.810;9.282;2023-02-15T00:39:49;19.03;;;17.03;;
1366;SDS011;16877;48.810;9.282;2023-02-15T00:42:16;19.60;;;17.70;;
1366;SDS011;16877;48.810;9.282;2023-02-15T00:44:44;19.27;;;17.27;;
1366;SDS011;16877;48.810;9.282;2023-02-15T00:47:12;17.37;;;15.50;;
1366;SDS011;16877;48.810;9.282;2023-02-15T00:49:41;18.63;;;16.70;;
1366;SDS011;16877;48.810;9.282;2023-02-15T00:52:09;18.60;;;16.57;;
1366;SDS011;16877;48.810;9.282;2023-02-15T00:54:36;18.50;;;16.70;;
1366;SDS011;16877;48.810;9.282;2023-02-15T00:57:04;17.43;;;15.73;;
1366;SDS011;16877;48.810;9.282;2023-02-15T00:59:32;18.00;;;16.13;;
1366;SDS011;16877;48.810;9.282;2023-02-15T01:02:01;16.67;;;14.97;;
1366;SDS011;16877;48.810;9.282;2023-02-15T01:04:28;16.70;;;14.90;;
1366;SDS011;16877;48.810;9.282;2023-02-15T01:07:08;18.00;;;15.73;;
1366;SDS011;16877;48.810;9.282;2023-02-15T01:09:35;16.83;;;15.13;;
1366;SDS011;16877;48.810;9.282;2023-02-15T01:12:03;15.03;;;13.60;;
1366;SDS011;16877;48.810;9.282;2023-02-15T01:14:31;16.83;;;15.07;;
1366;SDS011;16877;48.810;9.282;2023-02-15T01:16:58;16.37;;;14.50;;
1366;SDS011;16877;48.810;9.282;2023-02-15T01:19:29;18.33;;;16.43;;
1366;SDS011;16877;48.810;9.282;2023-02-15T01:21:57;18.10;;;16.27;;
1366;SDS011;16877;48.810;9.282;2023-02-15T01:24:26;16.60;;;14.90;;
1366;SDS011;16877;48.810;9.282;2023-02-15T01:26:54;17.93;;;16.13;;
1366;SDS011;16877;48.810;9.282;2023-02-15T01:29:21;16.67;;;15.00;;
1366;SDS011;16877;48.810;9.282;2023-02-15T01:31:49;15.73;;;14.03;;
1366;SDS011;16877;48.810;9.282;2023-02-15T01:34:16;17.57;;;15.77;;
1366;SDS011;16877;48.810;9.282;2023-02-15T01:36:44;16.33;;;14.50;;
1366;SDS011;16877;48.810;9.282;2023-02-15T01:39:11;15.23;;;13.80;;
1366;SDS011;16877;48.810;9.282;2023-02-15T01:41:41;17.53;;;15.83;;
1366;SDS011;16877;48.810;9.282;2023-02-15T01:47:13;16.17;;;14.53;;
1366;SDS011;16877;48.810;9.282;2023-02-15T01:49:45;16.77;;;15.13;;
1366;SDS011;16877;48.810;9.282;2023-02-15T01:52:28;16.47;;;14.50;;
1366;SDS011;16877;48.810;9.282;2023-02-15T01:54:56;19.07;;;17.00;;
1366;SDS011;16877;48.810;9.282;2023-02-15T01:57:26;17.60;;;15.80;;
1366;SDS011;16877;48.810;9.282;2023-02-15T01:59:55;15.80;;;14.30;;
1366;SDS011;16877;48.810;9.282;2023-02-15T02:02:26;16.70;;;15.10;;
1366;SDS011;16877;48.810;9.282;2023-02-15T02:04:54;17.53;;;15.70;;
1366;SDS011;16877;48.810;9.282;2023-02-15T02:07:29;17.60;;;15.80;;
1366;SDS011;16877;48.810;9.282;2023-02-15T02:09:58;18.77;;;15.90;;
1366;SDS011;16877;48.810;9.282;2023-02-15T02:12:28;16.97;;;15.27;;
1366;SDS011;16877;48.810;9.282;2023-02-15T02:14:56;16.80;;;15.03;;
1366;SDS011;16877;48.810;9.282;2023-02-15T02:17:37;16.43;;;14.73;;
1366;SDS011;16877;48.810;9.282;2023-02-15T02:20:24;16.83;;;14.80;;
1366;SDS011;16877;48.810;9.282;2023-02-15T02:23:01;16.77;;;15.10;;
1366;SDS011;16877;48.810;9.282;2023-02-15T02:26:09;19.20;;;17.20;;
1366;SDS011;16877;48.810;9.282;2023-02-15T02:29:17;17.27;;;15.50;;
1366;SDS011;16877;48.810;9.282;2023-02-15T02:35:07;16.83;;;15.13;;
1366;SDS011;16877;48.810;9.282;2023-02-15T02:37:41;15.63;;;14.00;;
1366;SDS011;16877;48.810;9.282;2023-02-15T02:40:16;18.23;;;16.30;;
1366;SDS011;16877;48.810;9.282;2023-02-15T02:42:54;17.60;;;15.70;;
1366;SDS011;16877;48.810;9.282;2023-02-15T02:45:27;17.73;;;15.90;;
1366;SDS011;16877;48.810;9.282;2023-02-15T02:47:59;16.40;;;14.70;;
1366;SDS011;16877;48.810;9.282;2023-02-15T02:50:32;15.13;;;13.60;;
1366;SDS011;16877;48.810;9.282;2023-02-15T02:52:59;16.00;;;14.40;;
1366;SDS011;16877;48.810;9.282;2023-02-15T02:55:27;15.83;;;14.27;;
1366;SDS011;16877;48.810;9.282;2023-02-15T02:57:59;16.63;;;14.93;;
1366;SDS011;16877;48.810;9.282;2023-02-15T03:00:30;18.60;;;15.87;;
1366;SDS011;16877;48.810;9.282;2023-02-15T03:03:03;16.47;;;14.87;;
1366;SDS011;16877;48.810;9.282;2023-02-15T03:05:36;16.97;;;15.17;;
1366;SDS011;16877;48.810;9.282;2023-02-15T03:08:06;18.17;;;16.30;;
1366;SDS011;16877;48.810;9.282;2023-02-15T03:10:35;17.53;;;15.63;;
1366;SDS011;16877;48.810;9.282;2023-02-15T03:13:04;15.63;;;14.03;;
1366;SDS011;16877;48.810;9.282;2023-02-15T03:15:36;18.33;;;13.90;;
1366;SDS011;16877;48.810;9.282;2023-02-15T03:18:32;16.20;;;14.13;;
1366;SDS011;16877;48.810;9.282;2023-02-15T03:21:04;14.97;;;13.47;;
1366;SDS011;16877;48.810;9.282;2023-02-15T03:23:35;13.43;;;12.03;;
1366;SDS011;16877;48.810;9.282;2023-02-15T03:26:05;14.73;;;13.20;;
1366;SDS011;16877;48.810;9.282;2023-02-15T03:28:36;14.13;;;12.73;;
1366;SDS011;16877;48.810;9.282;2023-02-15T03:31:10;14.70;;;13.20;;
1366;SDS011;16877;48.810;9.282;2023-02-15T03:33:41;14.27;;;12.80;;
1366;SDS011;16877;48.810;9.282;2023-02-15T03:36:14;14.67;;;13.00;;
1366;SDS011;16877;48.810;9.282;2023-02-15T03:38:47;14.47;;;13.07;;
1366;SDS011;16877;48.810;9.282;2023-02-15T03:41:31;13.97;;;12.50;;
1366;SDS011;16877;48.810;9.282;2023-02-15T03:44:04;14.20;;;12.80;;
1366;SDS011;16877;48.810;9.282;2023-02-15T03:46:36;14.20;;;12.80;;
1366;SDS011;16877;48.810;9.282;2023-02-15T03:49:09;14.27;;;12.87;;
1366;SDS011;16877;48.810;9.282;2023-02-15T03:51:42;16.93;;;13.67;;
1366;SDS011;16877;48.810;9.282;2023-02-15T03:54:13;13.70;;;12.30;;
1366;SDS011;16877;48.810;9.282;2023-02-15T03:57:03;14.47;;;12.17;;
1366;SDS011;16877;48.810;9.282;2023-02-15T03:59:50;15.50;;;14.00;;
1366;SDS011;16877;48.810;9.282;2023-02-15T04:02:36;15.40;;;13.80;;
1366;SDS011;16877;48.810;9.282;2023-02-15T04:05:07;15.17;;;12.70;;
1366;SDS011;16877;48.810;9.282;2023-02-15T04:07:36;14.73;;;13.23;;
1366;SDS011;16877;48.810;9.282;2023-02-15T04:10:04;14.73;;;13.23;;
1366;SDS011;16877;48.810;9.282;2023-02-15T04:12:49;14.37;;;12.70;;
1366;SDS011;16877;48.810;9.282;2023-02-15T04:15:27;15.10;;;13.60;;
1366;SDS011;16877;48.810;9.282;2023-02-15T04:18:11;13.50;;;12.10;;
1366;SDS011;16877;48.810;9.282;2023-02-15T04:20:40;15.47;;;13.83;;
1366;SDS011;16877;48.810;9.282;2023-02-15T04:23:29;13.20;;;11.90;;
1366;SDS011;16877;48.810;9.282;2023-02-15T04:26:13;14.50;;;13.00;;
1366;SDS011;16877;48.810;9.282;2023-02-15T04:28:40;14.10;;;12.63;;
1366;SDS011;16877;48.810;9.282;2023-02-15T04:31:08;14.53;;;12.87;;
1366;SDS011;16877;48.810;9.282;2023-02-15T04:33:35;14.17;;;12.80;;
1366;SDS011;16877;48.810;9.282;2023-02-15T04:36:02;14.43;;;12.90;;
1366;SDS011;16877;48.810;9.282;2023-02-15T04:38:31;15.47;;;13.97;;
1366;SDS011;16877;48.810;9.282;2023-02-15T04:41:00;14.77;;;13.20;;
1366;SDS011;16877;48.810;9.282;2023-02-15T04:43:27;14.30;;;12.80;;
1366;SDS011;16877;48.810;9.282;2023-02-15T04:45:55;14.50;;;13.00;;
1366;SDS011;16877;48.810;9.282;2023-02-15T04:48:24;14.60;;;13.10;;
1366;SDS011;16877;48.810;9.282;2023-02-15T04:50:51;13.10;;;11.80;;
1366;SDS011;16877;48.810;9.282;2023-02-15T04:53:35;14.13;;;12.73;;
1366;SDS011;16877;48.810;9.282;2023-02-15T04:56:03;14.33;;;12.90;;
1366;SDS011;16877;48.810;9.282;2023-02-15T04:58:30;15.43;;;13.90;;
1366;SDS011;16877;48.810;9.282;2023-02-15T05:00:58;14.00;;;12.20;;
1366;SDS011;16877;48.810;9.282;2023-02-15T05:03:26;14.07;;;12.40;;
1366;SDS011;16877;48.810;9.282;2023-02-15T05:05:53;15.00;;;13.43;;
1366;SDS011;16877;48.810;9.282;2023-02-15T05:08:22;15.57;;;13.90;;
1366;SDS011;16877;48.810;9.282;2023-02-15T05:10:51;13.43;;;12.13;;
1366;SDS011;16877;48.810;9.282;2023-02-15T05:13:19;13.53;;;12.13;;
1366;SDS011;16877;48.810;9.282;2023-02-15T05:15:47;16.13;;;14.00;;
1366;SDS011;16877;48.810;9.282;2023-02-15T05:18:15;16.27;;;14.57;;
1366;SDS011;16877;48.810;9.282;2023-02-15T05:20:43;17.53;;;15.70;;
1366;SDS011;16877;48.810;9.282;2023-02-15T05:23:11;17.13;;;15.10;;
1366;SDS011;16877;48.810;9.282;2023-02-15T05:25:38;16.87;;;15.07;;
1366;SDS011;16877;48.810;9.282;2023-02-15T05:28:25;17.87;;;15.77;;
1366;SDS011;16877;48.810;9.282;2023-02-15T05:30:58;17.73;;;15.93;;
1366;SDS011;16877;48.810;9.282;2023-02-15T05:33:29;17.97;;;16.17;;
1366;SDS011;16877;48.810;9.282;2023-02-15T05:35:56;18.67;;;16.00;;
1366;SDS011;16877;48.810;9.282;2023-02-15T05:38:24;17.03;;;15.23;;
1366;SDS011;16877;48.810;9.282;2023-02-15T05:40:51;19.47;;;16.77;;
1366;SDS011;16877;48.810;9.282;2023-02-15T05:43:31;16.10;;;14.30;;
1366;SDS011;16877;48.810;9.282;2023-02-15T05:45:59;17.97;;;16.17;;
1366;SDS011;16877;48.810;9.282;2023-02-15T05:48:27;16.83;;;14.97;;
1366;SDS011;16877;48.810;9.282;2023-02-15T05:50:59;17.63;;;15.83;;
1366;SDS011;16877;48.810;9.282;2023-02-15T05:53:27;15.93;;;14.33;;
1366;SDS011;16877;48.810;9.282;2023-02-15T05:55:55;15.40;;;13.80;;
1366;SDS011;16877;48.810;9.282;2023-02-15T05:58:24;17.60;;;15.80;;
1366;SDS011;16877;48.810;9.282;2023-02-15T06:00:53;16.83;;;15.17;;
1366;SDS011;16877;48.810;9.282;2023-02-15T06:03:21;17.63;;;15.73;;
1366;SDS011;16877;48.810;9.282;2023-02-15T06:05:48;18.50;;;16.60;;
1366;SDS011;16877;48.810;9.282;2023-02-15T06:08:15;17.30;;;15.27;;
1366;SDS011;16877;48.810;9.282;2023-02-15T06:10:43;15.90;;;14.30;;
1366;SDS011;16877;48.810;9.282;2023-02-15T06:13:12;15.97;;;14.33;;
1366;SDS011;16877;48.810;9.282;2023-02-15T06:15:42;16.60;;;15.00;;
1366;SDS011;16877;48.810;9.282;2023-02-15T06:18:11;16.43;;;14.80;;
1366;SDS011;16877;48.810;9.282;2023-02-15T06:20:44;16.37;;;14.67;;
1366;SDS011;16877;48.810;9.282;2023-02-15T06:23:12;18.00;;;15.57;;
1366;SDS011;16877;48.810;9.282;2023-02-15T06:25:54;18.37;;;16.17;;
1366;SDS011;16877;48.810;9.282;2023-02-15T06:28:22;17.40;;;15.60;;
1366;SDS011;16877;48.810;9.282;2023-02-15T06:30:50;17.07;;;15.27;;
1366;SDS011;16877;48.810;9.282;2023-02-15T06:33:19;16.93;;;15.13;;
1366;SDS011;16877;48.810;9.282;2023-02-15T06:35:47;17.60;;;15.67;;
1366;SDS011;16877;48.810;9.282;2023-02-15T06:38:14;17.43;;;15.63;;
1366;SDS011;16877;48.810;9.282;2023-02-15T06:40:42;18.93;;;16.17;;
1366;SDS011;16877;48.810;9.282;2023-02-15T06:43:10;20.40;;;18.30;;
1366;SDS011;16877;48.810;9.282;2023-02-15T06:45:37;17.97;;;15.20;;
1366;SDS011;16877;48.810;9.282;2023-02-15T06:48:06;19.97;;;16.40;;
1366;SDS011;16877;48.810;9.282;2023-02-15T06:50:35;17.37;;;15.50;;
1366;SDS011;16877;48.810;9.282;2023-02-15T06:53:05;16.60;;;14.90;;
1366;SDS011;16877;48.810;9.282;2023-02-15T06:55:36;17.33;;;15.53;;
1366;SDS011;16877;48.810;9.282;2023-02-15T06:58:04;16.97;;;15.27;;
1366;SDS011;16877;48.810;9.282;2023-02-15T07:00:31;17.47;;;15.80;;
1366;SDS011;16877;48.810;9.282;2023-02-15T07:03:01;16.90;;;15.20;;
1366;SDS011;16877;48.810;9.282;2023-02-15T07:05:32;19.43;;;17.33;;
1366;SDS011;16877;48.810;9.282;2023-02-15T07:08:02;17.70;;;15.07;;
1366;SDS011;16877;48.810;9.282;2023-02-15T07:10:30;16.60;;;14.90;;
1366;SDS011;16877;48.810;9.282;2023-02-15T07:12:57;15.93;;;14.33;;
1366;SDS011;16877;48.810;9.282;2023-02-15T07:15:23;19.77;;;17.70;;
1366;SDS011;16877;48.810;9.282;2023-02-15T07:17:50;16.13;;;14.43;;
1366;SDS011;16877;48.810;9.282;2023-02-15T07:20:18;14.90;;;13.40;;
1366;SDS011;16877;48.810;9.282;2023-02-15T07:22:48;16.67;;;14.97;;
1366;SDS011;16877;48.810;9.282;2023-02-15T07:25:16;16.00;;;14.40;;
1366;SDS011;16877;48.810;9.282;2023-02-15T07:27:44;15.03;;;13.67;;
1366;SDS011;16877;48.810;9.282;2023-02-15T07:30:13;14.73;;;13.27;;
1366;SDS011;16877;48.810;9.282;2023-02-15T07:32:41;15.03;;;13.57;;
1366;SDS011;16877;48.810;9.282;2023-02-15T07:35:23;15.17;;;13.67;;
1366;SDS011;16877;48.810;9.282;2023-02-15T07:37:52;14.40;;;13.10;;
1366;SDS011;16877;48.810;9.282;2023-02-15T07:40:20;15.33;;;13.93;;
1366;SDS011;16877;48.810;9.282;2023-02-15T07:42:48;16.50;;;14.80;;
1366;SDS011;16877;48.810;9.282;2023-02-15T07:45:19;15.67;;;14.03;;
1366;SDS011;16877;48.810;9.282;2023-02-15T07:47:47;15.60;;;14.10;;
1366;SDS011;16877;48.810;9.282;2023-02-15T07:50:14;16.30;;;14.70;;
1366;SDS011;16877;48.810;9.282;2023-02-15T07:52:42;14.27;;;12.90;;
1366;SDS011;16877;48.810;9.282;2023-02-15T07:55:11;14.30;;;13.00;;
1366;SDS011;16877;48.810;9.282;2023-02-15T07:57:41;14.83;;;13.33;;
1366;SDS011;16877;48.810;9.282;2023-02-15T08:00:10;13.67;;;12.37;;
1366;SDS011;16877;48.810;9.282;2023-02-15T08:02:38;15.20;;;13.70;;
1366;SDS011;16877;48.810;9.282;2023-02-15T08:05:05;14.73;;;13.23;;
1366;SDS011;16877;48.810;9.282;2023-02-15T08:07:33;15.03;;;13.53;;
1366;SDS011;16877;48.810;9.282;2023-02-15T08:10:02;16.13;;;14.53;;
1366;SDS011;16877;48.810;9.282;2023-02-15T08:12:32;12.83;;;11.60;;
1366;SDS011;16877;48.810;9.282;2023-02-15T08:14:59;14.40;;;12.90;;
1366;SDS011;16877;48.810;9.282;2023-02-15T08:17:27;13.73;;;12.33;;
1366;SDS011;16877;48.810;9.282;2023-02-15T08:19:54;13.37;;;12.07;;
1366;SDS011;16877;48.810;9.282;2023-02-15T08:22:21;14.33;;;12.90;;
1366;SDS011;16877;48.810;9.282;2023-02-15T08:24:49;14.73;;;13.33;;
1366;SDS011;16877;48.810;9.282;2023-02-15T08:27:17;13.70;;;12.40;;
1366;SDS011;16877;48.810;9.282;2023-02-15T08:29:53;15.00;;;13.60;;
1366;SDS011;16877;48.810;9.282;2023-02-15T08:32:26;15.50;;;13.83;;
1366;SDS011;16877;48.810;9.282;2023-02-15T08:34:54;16.03;;;14.43;;
1366;SDS011;16877;48.810;9.282;2023-02-15T08:37:21;14.30;;;12.80;;
1366;SDS011;16877;48.810;9.282;2023-02-15T08:39:50;14.83;;;13.40;;
1366;SDS011;16877;48.810;9.282;2023-02-15T08:42:18;16.63;;;14.93;;
1366;SDS011;16877;48.810;9.282;2023-02-15T08:44:46;18.00;;;16.20;;
1366;SDS011;16877;48.810;9.282;2023-02-15T08:47:17;17.20;;;15.40;;
1366;SDS011;16877;48.810;9.282;2023-02-15T08:49:44;15.33;;;13.73;;
1366;SDS011;16877;48.810;9.282;2023-02-15T08:52:13;16.03;;;14.33;;
1366;SDS011;16877;48.810;9.282;2023-02-15T08:54:40;15.00;;;13.57;;
1366;SDS011;16877;48.810;9.282;2023-02-15T08:57:08;15.80;;;14.23;;
1366;SDS011;16877;48.810;9.282;2023-02-15T08:59:36;14.77;;;13.33;;
1366;SDS011;16877;48.810;9.282;2023-02-15T09:02:03;14.90;;;13.50;;
1366;SDS011;16877;48.810;9.282;2023-02-15T09:04:32;13.43;;;12.13;;
1366;SDS011;16877;48.810;9.282;2023-02-15T09:07:01;14.83;;;13.43;;
1366;SDS011;16877;48.810;9.282;2023-02-15T09:09:29;14.13;;;12.63;;
1366;SDS011;16877;48.810;9.282;2023-02-15T09:11:57;15.63;;;13.97;;
1366;SDS011;16877;48.810;9.282;2023-02-15T09:14:25;15.00;;;13.60;;
1366;SDS011;16877;48.810;9.282;2023-02-15T09:16:53;17.07;;;15.37;;
1366;SDS011;16877;48.810;9.282;2023-02-15T09:19:21;14.20;;;12.80;;
1366;SDS011;16877;48.810;9.282;2023-02-15T09:21:51;15.00;;;13.50;;
1366;SDS011;16877;48.810;9.282;2023-02-15T09:24:18;15.60;;;14.10;;
1366;SDS011;16877;48.810;9.282;2023-02-15T09:26:46;17.33;;;15.53;;
1366;SDS011;16877;48.810;9.282;2023-02-15T09:29:14;17.60;;;15.60;;
1366;SDS011;16877;48.810;9.282;2023-02-15T09:31:43;16.13;;;14.53;;
1366;SDS011;16877;48.810;9.282;2023-02-15T09:34:12;15.30;;;13.73;;
1366;SDS011;16877;48.810;9.282;2023-02-15T09:36:41;15.43;;;14.03;;
1366;SDS011;16877;48.810;9.282;2023-02-15T09:39:10;15.13;;;13.60;;
1366;SDS011;16877;48.810;9.282;2023-02-15T09:41:50;16.73;;;15.13;;
1366;SDS011;16877;48.810;9.282;2023-02-15T09:44:45;14.53;;;13.13;;
1366;SDS011;16877;48.810;9.282;2023-02-15T09:47:27;15.23;;;13.73;;
1366;SDS011;16877;48.810;9.282;2023-02-15T09:50:11;15.13;;;13.67;;
1366;SDS011;16877;48.810;9.282;2023-02-15T09:52:54;16.60;;;15.00;;
1366;SDS011;16877;48.810;9.282;2023-02-15T09:55:42;16.77;;;15.10;;
1366;SDS011;16877;48.810;9.282;2023-02-15T09:58:19;17.77;;;15.97;;
1366;SDS011;16877;48.810;9.282;2023-02-15T10:00:54;18.60;;;16.70;;
1366;SDS011;16877;48.810;9.282;2023-02-15T10:03:37;18.27;;;16.37;;
1366;SDS011;16877;48.810;9.282;2023-02-15T10:06:28;22.63;;;20.30;;
1366;SDS011;16877;48.810;9.282;2023-02-15T10:12:24;20.10;;;18.10;;
1366;SDS011;16877;48.810;9.282;2023-02-15T10:15:13;21.27;;;19.10;;
1366;SDS011;16877;48.810;9.282;2023-02-15T10:18:11;20.17;;;18.03;;
1366;SDS011;16877;48.810;9.282;2023-02-15T10:20:50;22.50;;;20.30;;
1366;SDS011;16877;48.810;9.282;2023-02-15T10:23:34;19.90;;;17.80;;
1366;SDS011;16877;48.810;9.282;2023-02-15T10:26:20;21.53;;;19.40;;
1366;SDS011;16877;48.810;9.282;2023-02-15T10:28:51;23.00;;;20.70;;
1366;SDS011;16877;48.810;9.282;2023-02-15T10:31:22;21.30;;;19.30;;
1366;SDS011;16877;48.810;9.282;2023-02-15T10:33:55;24.30;;;21.83;;
1366;SDS011;16877;48.810;9.282;2023-02-15T10:36:37;22.83;;;20.50;;
1366;SDS011;16877;48.810;9.282;2023-02-15T10:39:18;22.37;;;20.13;;
1366;SDS011;16877;48.810;9.282;2023-02-15T10:41:53;18.97;;;17.00;;
1366;SDS011;16877;48.810;9.282;2023-02-15T10:44:34;19.97;;;17.90;;
1366;SDS011;16877;48.810;9.282;2023-02-15T10:47:15;18.63;;;16.73;;
1366;SDS011;16877;48.810;9.282;2023-02-15T10:50:06;18.43;;;16.63;;
1366;SDS011;16877;48.810;9.282;2023-02-15T10:52:51;16.40;;;14.90;;
1366;SDS011;16877;48.810;9.282;2023-02-15T10:55:36;17.30;;;15.70;;
1366;SDS011;16877;48.810;9.282;2023-02-15T10:58:14;15.00;;;13.57;;
1366;SDS011;16877;48.810;9.282;2023-02-15T11:00:52;16.47;;;14.97;;
1366;SDS011;16877;48.810;9.282;2023-02-15T11:03:33;16.37;;;14.80;;
1366;SDS011;16877;48.810;9.282;2023-02-15T11:06:08;18.10;;;16.20;;
1366;SDS011;16877;48.810;9.282;2023-02-15T11:08:39;16.37;;;14.83;;
1366;SDS011;16877;48.810;9.282;2023-02-15T11:11:08;16.33;;;14.73;;
1366;SDS011;16877;48.810;9.282;2023-02-15T11:13:38;15.40;;;13.90;;
1366;SDS011;16877;48.810;9.282;2023-02-15T11:16:11;14.73;;;13.23;;
1366;SDS011;16877;48.810;9.282;2023-02-15T11:18:43;16.93;;;15.20;;
1366;SDS011;16877;48.810;9.282;2023-02-15T11:21:17;14.60;;;13.20;;
1366;SDS011;16877;48.810;9.282;2023-02-15T11:23:48;15.97;;;14.57;;
1366;SDS011;16877;48.810;9.282;2023-02-15T11:26:19;16.63;;;13.03;;
1366;SDS011;16877;48.810;9.282;2023-02-15T11:28:52;15.90;;;14.40;;
1366;SDS011;16877;48.810;9.282;2023-02-15T11:31:42;14.20;;;12.87;;
1366;SDS011;16877;48.810;9.282;2023-02-15T11:34:13;14.80;;;13.30;;
1366;SDS011;16877;48.810;9.282;2023-02-15T11:36:45;13.33;;;12.00;;
1366;SDS011;16877;48.810;9.282;2023-02-15T11:39:15;13.77;;;12.33;;
1366;SDS011;16877;48.810;9.282;2023-02-15T11:41:49;12.13;;;11.03;;
1366;SDS011;16877;48.810;9.282;2023-02-15T11:44:34;14.40;;;12.40;;
1366;SDS011;16877;48.810;9.282;2023-02-15T11:47:09;13.33;;;11.87;;
1366;SDS011;16877;48.810;9.282;2023-02-15T11:49:38;13.63;;;11.50;;
1366;SDS011;16877;48.810;9.282;2023-02-15T11:52:06;12.33;;;11.13;;
1366;SDS011;16877;48.810;9.282;2023-02-15T11:54:37;11.93;;;10.77;;
1366;SDS011;16877;48.810;9.282;2023-02-15T11:57:11;11.83;;;10.67;;
1366;SDS011;16877;48.810;9.282;2023-02-15T11:59:43;12.47;;;11.30;;
1366;SDS011;16877;48.810;9.282;2023-02-15T12:02:18;10.90;;;9.80;;
1366;SDS011;16877;48.810;9.282;2023-02-15T12:04:48;10.90;;;9.90;;
1366;SDS011;16877;48.810;9.282;2023-02-15T12:07:20;10.70;;;9.77;;
1366;SDS011;16877;48.810;9.282;2023-02-15T12:09:51;11.50;;;9.70;;
1366;SDS011;16877;48.810;9.282;2023-02-15T12:12:26;11.27;;;10.27;;
1366;SDS011;16877;48.810;9.282;2023-02-15T12:14:57;11.40;;;9.40;;
1366;SDS011;16877;48.810;9.282;2023-02-15T12:17:27;11.00;;;10.00;;
1366;SDS011;16877;48.810;9.282;2023-02-15T12:19:56;11.37;;;10.23;;
1366;SDS011;16877;48.810;9.282;2023-02-15T12:22:27;10.93;;;10.03;;
1366;SDS011;16877;48.810;9.282;2023-02-15T12:25:00;10.80;;;9.80;;
1366;SDS011;16877;48.810;9.282;2023-02-15T12:27:30;10.90;;;9.70;;
1366;SDS011;16877;48.810;9.282;2023-02-15T12:30:03;10.50;;;9.70;;
1366;SDS011;16877;48.810;9.282;2023-02-15T12:32:35;9.80;;;8.90;;
1366;SDS011;16877;48.810;9.282;2023-02-15T12:35:14;9.87;;;8.83;;
1366;SDS011;16877;48.810;9.282;2023-02-15T12:37:51;10.57;;;9.47;;
1366;SDS011;16877;48.810;9.282;2023-02-15T12:40:36;9.93;;;9.03;;
1366;SDS011;16877;48.810;9.282;2023-02-15T12:43:08;12.10;;;9.00;;
1366;SDS011;16877;48.810;9.282;2023-02-15T12:45:51;9.47;;;8.57;;
1366;SDS011;16877;48.810;9.282;2023-02-15T12:48:21;10.00;;;9.10;;
1366;SDS011;16877;48.810;9.282;2023-02-15T12:50:49;9.03;;;8.10;;
1366;SDS011;16877;48.810;9.282;2023-02-15T12:53:20;10.47;;;8.80;;
1366;SDS011;16877;48.810;9.282;2023-02-15T12:55:50;10.70;;;9.70;;
1366;SDS011;16877;48.810;9.282;2023-02-15T12:58:19;10.60;;;8.80;;
1366;SDS011;16877;48.810;9.282;2023-02-15T13:00:48;9.90;;;8.97;;
1366;SDS011;16877;48.810;9.282;2023-02-15T13:03:31;9.20;;;8.40;;
1366;SDS011;16877;48.810;9.282;2023-02-15T13:05:59;10.93;;;9.83;;
1366;SDS011;16877;48.810;9.282;2023-02-15T13:08:31;9.57;;;8.67;;
1366;SDS011;16877;48.810;9.282;2023-02-15T13:11:02;9.57;;;8.40;;
1366;SDS011;16877;48.810;9.282;2023-02-15T13:13:33;10.27;;;9.27;;
1366;SDS011;16877;48.810;9.282;2023-02-15T13:16:04;10.00;;;9.10;;
1366;SDS011;16877;48.810;9.282;2023-02-15T13:18:35;9.83;;;8.90;;
1366;SDS011;16877;48.810;9.282;2023-02-15T13:21:06;10.30;;;9.30;;
1366;SDS011;16877;48.810;9.282;2023-02-15T13:23:37;11.63;;;9.43;;
1366;SDS011;16877;48.810;9.282;2023-02-15T13:26:11;10.23;;;9.33;;
1366;SDS011;16877;48.810;9.282;2023-02-15T13:28:45;10.90;;;9.90;;
1366;SDS011;16877;48.810;9.282;2023-02-15T13:31:15;10.73;;;9.67;;
1366;SDS011;16877;48.810;9.282;2023-02-15T13:33:48;10.00;;;9.10;;
1366;SDS011;16877;48.810;9.282;2023-02-15T13:36:21;10.70;;;9.70;;
1366;SDS011;16877;48.810;9.282;2023-02-15T13:39:00;10.20;;;9.20;;
1366;SDS011;16877;48.810;9.282;2023-02-15T13:41:39;11.33;;;9.30;;
1366;SDS011;16877;48.810;9.282;2023-02-15T13:44:15;10.10;;;9.20;;
1366;SDS011;16877;48.810;9.282;2023-02-15T13:46:55;9.80;;;8.80;;
1366;SDS011;16877;48.810;9.282;2023-02-15T13:49:42;10.33;;;9.33;;
1366;SDS011;16877;48.810;9.282;2023-02-15T13:52:19;10.77;;;9.23;;
1366;SDS011;16877;48.810;9.282;2023-02-15T13:54:59;10.60;;;9.60;;
1366;SDS011;16877;48.810;9.282;2023-02-15T13:58:06;9.90;;;9.00;;
1366;SDS011;16877;48.810;9.282;2023-02-15T14:00:47;10.73;;;9.70;;
1366;SDS011;16877;48.810;9.282;2023-02-15T14:03:39;10.23;;;9.37;;
1366;SDS011;16877;48.810;9.282;2023-02-15T14:06:31;10.23;;;8.90;;
1366;SDS011;16877;48.810;9.282;2023-02-15T14:09:14;8.83;;;8.13;;
1366;SDS011;16877;48.810;9.282;2023-02-15T14:11:54;9.13;;;8.30;;
1366;SDS011;16877;48.810;9.282;2023-02-15T14:14:35;9.37;;;8.47;;
1366;SDS011;16877;48.810;9.282;2023-02-15T14:17:16;9.77;;;8.37;;
1366;SDS011;16877;48.810;9.282;2023-02-15T14:19:50;9.17;;;8.27;;
1366;SDS011;16877;48.810;9.282;2023-02-15T14:22:25;11.07;;;7.90;;
1366;SDS011;16877;48.810;9.282;2023-02-15T14:25:05;9.23;;;8.33;;
1366;SDS011;16877;48.810;9.282;2023-02-15T14:27:43;9.50;;;8.30;;
1366;SDS011;16877;48.810;9.282;2023-02-15T14:30:19;9.33;;;8.50;;
1366;SDS011;16877;48.810;9.282;2023-02-15T14:32:50;8.53;;;7.73;;
1366;SDS011;16877;48.810;9.282;2023-02-15T14:35:20;8.90;;;8.10;;
1366;SDS011;16877;48.810;9.282;2023-02-15T14:37:52;8.63;;;7.83;;
1366;SDS011;16877;48.810;9.282;2023-02-15T14:40:30;9.63;;;8.23;;
1366;SDS011;16877;48.810;9.282;2023-02-15T14:43:19;13.73;;;8.07;;
1366;SDS011;16877;48.810;9.282;2023-02-15T14:45:59;8.83;;;8.03;;
1366;SDS011;16877;48.810;9.282;2023-02-15T14:48:30;8.93;;;8.13;;
1366;SDS011;16877;48.810;9.282;2023-02-15T14:51:00;8.53;;;7.80;;
1366;SDS011;16877;48.810;9.282;2023-02-15T14:53:36;8.93;;;7.37;;
1366;SDS011;16877;48.810;9.282;2023-02-15T14:56:05;7.93;;;7.23;;
1366;SDS011;16877;48.810;9.282;2023-02-15T15:01:51;10.20;;;7.90;;
1366;SDS011;16877;48.810;9.282;2023-02-15T15:04:23;8.30;;;7.50;;
1366;SDS011;16877;48.810;9.282;2023-02-15T15:07:00;8.30;;;7.50;;
1366;SDS011;16877;48.810;9.282;2023-02-15T15:09:36;8.40;;;7.70;;
1366;SDS011;16877;48.810;9.282;2023-02-15T15:12:26;9.50;;;8.50;;
1366;SDS011;16877;48.810;9.282;2023-02-15T15:15:05;9.30;;;8.50;;
1366;SDS011;16877;48.810;9.282;2023-02-15T15:17:54;8.57;;;7.77;;
1366;SDS011;16877;48.810;9.282;2023-02-15T15:20:39;8.23;;;7.43;;
1366;SDS011;16877;48.810;9.282;2023-02-15T15:29:07;8.83;;;7.97;;